Cochrane — D5HE9 — position and weather

sailwx.info

Track history (hours):
 
Tides and Currents Weather Stations Pressure Air Temp Water Temp Dewpoint Dewpoint Depression Visibility Wind Speed Wind Dir Waves Ship Positions

Cochrane

Last reported at 2017-Sep-19 18:55 UTC. Time now 2017-Oct-19 16:23 UTC.
Position N 31°43' W 116°57'.
Warning: this ship's position is 29 days out of date.

Length 300 m; draft 9 m.

Type: Cargo ship. MMSI: 636016664.

Date/timePositionNaut miles runAvg speedWind from/ knotsBaromVisibWave heightAir tempDewpointWater temp
2017-Sep-19 18:55N 31°43' W 116°57'1610.5
2017-Sep-19 17:24N 31°36' W 117°14'1914.8
2017-Sep-19 16:09N 31°29' W 117°34'2716.1
2017-Sep-19 14:28N 31°18' W 118°03'1316.6
2017-Sep-19 13:43N 31°13' W 118°16'616.5
2017-Sep-19 13:19N 31°10' W 118°23'1116.5
2017-Sep-19 12:38N 31°05' W 118°35'416.7
2017-Sep-19 12:25N 31°04' W 118°39'716.4
2017-Sep-19 12:00N 31°03' W 118°47'916.5
2017-Sep-19 11:27N 31°01' W 118°57'3716.8
2017-Sep-19 09:13N 30°53' W 119°40'616.7
2017-Sep-19 08:51N 30°52' W 119°47'  
Track history (hours):
 
Tides and Currents Weather Stations Pressure Air Temp Water Temp Dewpoint Dewpoint Depression Visibility Wind Speed Wind Dir Waves Ship Positions

Cochrane

Last reported at 2017-Sep-19 18:55 UTC. Time now 2017-Oct-19 16:23 UTC.
Position N 31°43' W 116°57'.
Warning: this ship's position is 29 days out of date.

Length 300 m; draft 9 m.

Type: Cargo ship. MMSI: 636016664.

Date/timePositionNaut miles runAvg speedWind from/ knotsBaromVisibWave heightAir tempDewpointWater temp
2017-Sep-19 18:55N 31°43' W 116°57'1610.5
2017-Sep-19 17:24N 31°36' W 117°14'1914.8
2017-Sep-19 16:09N 31°29' W 117°34'2716.1
2017-Sep-19 14:28N 31°18' W 118°03'1316.6
2017-Sep-19 13:43N 31°13' W 118°16'616.5
2017-Sep-19 13:19N 31°10' W 118°23'1116.5
2017-Sep-19 12:38N 31°05' W 118°35'416.7
2017-Sep-19 12:25N 31°04' W 118°39'716.4
2017-Sep-19 12:00N 31°03' W 118°47'916.5
2017-Sep-19 11:27N 31°01' W 118°57'3716.8
2017-Sep-19 09:13N 30°53' W 119°40'616.7
2017-Sep-19 08:51N 30°52' W 119°47'  

Dump ship's entire track history